createdAt,value
2022-12-13T00:02:12.936Z,99657.06
2022-12-13T00:07:14.327Z,99652.09
2022-12-13T00:12:16.040Z,99652.09
2022-12-13T00:17:17.406Z,99640.84
2022-12-13T00:22:19.252Z,99638.72
2022-12-13T00:27:20.624Z,99634.16
2022-12-13T00:32:22.061Z,99631.66
2022-12-13T00:37:23.475Z,99631.47
2022-12-13T00:42:24.862Z,99633.81
2022-12-13T00:47:26.239Z,99640.84
2022-12-13T00:52:27.623Z,99629.44
2022-12-13T00:57:29.003Z,99632.50
2022-12-13T01:02:30.372Z,99622.72
2022-12-13T01:07:31.771Z,99635.22
2022-12-13T01:12:35.914Z,99631.41
2022-12-13T01:17:37.344Z,99636.00
2022-12-13T01:22:38.745Z,99627.19
2022-12-13T01:27:40.109Z,99628.28
2022-12-13T01:32:41.495Z,99620.66
2022-12-13T01:37:43.007Z,99611.97
2022-12-13T01:42:44.388Z,99625.69
2022-12-13T01:47:46.827Z,99624.88
2022-12-13T01:52:48.404Z,99634.06
2022-12-13T01:57:49.771Z,99631.81
2022-12-13T02:02:51.217Z,99622.56
2022-12-13T02:07:52.639Z,99628.03
2022-12-13T02:12:54.088Z,99629.69
2022-12-13T02:18:30.230Z,99630.00
2022-12-13T02:23:46.698Z,99627.25
2022-12-13T02:29:06.599Z,99621.28
2022-12-13T02:34:14.276Z,99622.72
2022-12-13T02:39:30.193Z,99618.56
2022-12-13T02:44:35.875Z,99621.56
2022-12-13T02:49:38.657Z,99623.63
2022-12-13T02:54:42.837Z,99617.94
2022-12-13T02:59:44.381Z,99607.25
2022-12-13T03:05:21.282Z,99609.25
2022-12-13T03:10:27.987Z,99605.13
2022-12-13T03:15:49.363Z,99617.38
2022-12-13T03:20:53.058Z,99613.16
2022-12-13T03:25:55.767Z,99617.59
2022-12-13T03:30:57.174Z,99607.84
2022-12-13T03:35:58.568Z,99607.41
2022-12-13T03:41:04.711Z,99602.44
2022-12-13T03:46:06.929Z,99596.47
2022-12-13T03:51:08.327Z,99591.56
2022-12-13T03:56:09.685Z,99590.50
2022-12-13T04:01:12.752Z,99590.00
2022-12-13T04:06:22.250Z,99590.00
2022-12-13T04:11:43.728Z,99595.13
2022-12-13T04:16:45.245Z,99600.59
2022-12-13T04:21:46.624Z,99595.13
2022-12-13T04:26:48.032Z,99590.69
2022-12-13T04:31:49.492Z,99593.41
2022-12-13T04:36:50.925Z,99587.13
2022-12-13T04:41:52.720Z,99589.34
2022-12-13T04:46:54.096Z,99583.97
2022-12-13T04:52:02.642Z,99595.41
2022-12-13T04:57:08.167Z,99593.81
2022-12-13T05:02:10.152Z,99588.84
2022-12-13T05:07:11.523Z,99594.06
2022-12-13T05:12:22.327Z,99597.53
2022-12-13T05:17:24.779Z,99592.34
2022-12-13T05:22:26.547Z,99601.38
2022-12-13T05:27:27.998Z,99599.16
2022-12-13T05:32:42.700Z,99613.59
2022-12-13T05:37:46.237Z,99601.38
2022-12-13T05:43:00.689Z,99605.84
2022-12-13T05:48:02.557Z,99615.09
2022-12-13T05:53:04.543Z,99613.50
2022-12-13T05:58:05.927Z,99615.47
2022-12-13T06:03:14.919Z,99611.69
2022-12-13T06:08:24.006Z,99616.50
2022-12-13T06:13:32.323Z,99631.41
2022-12-13T06:18:34.559Z,99628.38
2022-12-13T06:23:35.978Z,99627.25
2022-12-13T06:28:37.375Z,99637.94
2022-12-13T06:33:38.909Z,99636.38
2022-12-13T06:38:43.231Z,99634.44
2022-12-13T06:43:45.146Z,99635.72
2022-12-13T06:48:46.550Z,99636.50
2022-12-13T06:53:47.974Z,99646.81
2022-12-13T06:58:49.343Z,99638.63
2022-12-13T07:03:50.773Z,99634.81
2022-12-13T07:08:56.461Z,99643.34
2022-12-13T07:13:57.821Z,99649.66
2022-12-13T07:19:01.277Z,99658.31
2022-12-13T07:24:02.944Z,99656.91
2022-12-13T07:29:04.638Z,99663.28
2022-12-13T07:34:06.048Z,99669.00
2022-12-13T07:39:07.459Z,99669.75
2022-12-13T07:44:08.879Z,99675.22
2022-12-13T07:49:11.553Z,99676.78
2022-12-13T07:54:12.919Z,99684.53
2022-12-13T07:59:14.297Z,99674.13
2022-12-13T08:04:15.694Z,99685.69
2022-12-13T08:09:17.088Z,99674.53
2022-12-13T08:14:19.280Z,99684.03
2022-12-13T08:19:20.908Z,99681.06
2022-12-13T08:24:26.240Z,99672.75
2022-12-13T08:29:34.820Z,99664.28
2022-12-13T08:34:36.703Z,99669.56
2022-12-13T08:39:38.286Z,99671.75
2022-12-13T08:44:39.660Z,99668.56
2022-12-13T08:49:41.512Z,99674.75
2022-12-13T08:54:44.539Z,99662.31
2022-12-13T08:59:46.248Z,99661.03
2022-12-13T09:04:47.642Z,99667.16
2022-12-13T09:09:55.181Z,99659.47
2022-12-13T09:15:01.629Z,99661.16
2022-12-13T09:20:03.999Z,99672.41
2022-12-13T09:25:15.001Z,99667.53
2022-12-13T09:30:25.903Z,99668.09
2022-12-13T09:35:32.906Z,99671.13
2022-12-13T09:40:37.571Z,99670.31
2022-12-13T09:45:42.841Z,99668.13
2022-12-13T09:50:58.036Z,99654.13
2022-12-13T09:56:10.215Z,99652.56
2022-12-13T10:01:12.552Z,99648.22
2022-12-13T10:06:23.501Z,99645.19
2022-12-13T10:11:32.609Z,99633.66
2022-12-13T10:16:35.764Z,99641.94
2022-12-13T10:21:39.661Z,99630.09
2022-12-13T10:26:41.081Z,99628.25
2022-12-13T10:31:50.728Z,99627.75
2022-12-13T10:36:52.158Z,99619.53
2022-12-13T10:42:02.493Z,99616.22
2022-12-13T10:47:17.013Z,99611.31
2022-12-13T10:52:30.856Z,99603.94
2022-12-13T10:57:33.127Z,99599.22
2022-12-13T11:02:38.358Z,99603.63
2022-12-13T11:07:39.915Z,99598.53
2022-12-13T11:12:41.311Z,99596.81
2022-12-13T11:17:53.435Z,99590.81
2022-12-13T11:23:22.722Z,99586.75
2022-12-13T11:28:53.776Z,99582.66
2022-12-13T11:34:22.379Z,99576.16
2022-12-13T11:39:27.992Z,99572.03
2022-12-13T11:44:52.987Z,99578.38
2022-12-13T11:49:54.388Z,99571.72
2022-12-13T11:55:05.872Z,99577.47
2022-12-13T12:00:35.899Z,99577.16
2022-12-13T12:05:38.160Z,99588.13
2022-12-13T12:10:49.276Z,99572.22
2022-12-13T12:16:13.355Z,99565.09
2022-12-13T12:27:30.902Z,99573.03
2022-12-13T12:32:33.621Z,99566.72
2022-12-13T12:37:53.557Z,99574.41
2022-12-13T12:43:15.823Z,99565.91
2022-12-13T12:54:18.737Z,99568.66
2022-12-13T12:59:36.116Z,99573.28
2022-12-13T13:04:42.386Z,99575.19
2022-12-13T13:09:43.808Z,99555.50
2022-12-13T13:14:45.173Z,99557.72
2022-12-13T13:19:47.499Z,99554.44
2022-12-13T13:24:58.472Z,99550.31
2022-12-13T13:30:26.256Z,99548.94
2022-12-13T13:35:30.961Z,99545.34
2022-12-13T13:40:38.302Z,99550.81
2022-12-13T13:45:49.916Z,99556.03
2022-12-13T13:51:15.631Z,99556.84
2022-12-13T13:56:54.476Z,99569.78
2022-12-13T14:02:22.544Z,99571.13
2022-12-13T14:07:48.050Z,99581.78
2022-12-13T14:12:55.408Z,99575.69
2022-12-13T14:18:25.048Z,99578.44
2022-12-13T14:23:42.840Z,99581.16
2022-12-13T14:28:53.737Z,99579.56
2022-12-13T14:33:55.768Z,99569.41
2022-12-13T14:39:02.109Z,99576.03
2022-12-13T14:44:24.632Z,99581.28
2022-12-13T14:49:28.509Z,99578.50
2022-12-13T14:54:33.594Z,99583.91
2022-12-13T14:59:34.969Z,99572.72
2022-12-13T15:04:37.678Z,99569.84
2022-12-13T15:09:40.144Z,99573.06
2022-12-13T15:14:55.789Z,99562.66
2022-12-13T15:19:57.227Z,99569.09
2022-12-13T15:24:58.681Z,99555.06
2022-12-13T15:30:00.058Z,99555.03
2022-12-13T15:35:14.508Z,99555.84
2022-12-13T15:40:15.963Z,99556.06
2022-12-13T15:45:19.850Z,99565.13
2022-12-13T15:50:38.518Z,99559.63
2022-12-13T15:55:42.613Z,99567.31
2022-12-13T16:00:48.294Z,99562.53
2022-12-13T16:05:53.435Z,99560.63
2022-12-13T16:10:54.829Z,99552.13
2022-12-13T16:16:09.138Z,99566.06
2022-12-13T16:21:11.038Z,99563.56
2022-12-13T16:26:13.321Z,99564.72
2022-12-13T16:31:18.630Z,99554.84
2022-12-13T16:36:20.174Z,99551.28
2022-12-13T16:41:21.982Z,99551.88
2022-12-13T16:47:15.155Z,99546.66
2022-12-13T16:51:48.549Z,99543.88
2022-12-13T16:56:50.543Z,99538.09
2022-12-13T17:01:51.963Z,99531.22
2022-12-13T17:06:55.209Z,99527.94
2022-12-13T17:11:56.898Z,99539.38
2022-12-13T17:16:58.334Z,99535.94
2022-12-13T17:21:59.747Z,99523.06
2022-12-13T17:27:01.116Z,99518.72
2022-12-13T17:32:03.249Z,99529.97
2022-12-13T17:37:10.208Z,99534.88
2022-12-13T17:42:12.040Z,99532.09
2022-12-13T17:47:13.699Z,99535.09
2022-12-13T17:52:15.089Z,99526.06
2022-12-13T17:57:16.463Z,99531.78
2022-12-13T18:02:22.632Z,99524.69
2022-12-13T18:07:24.011Z,99528.81
2022-12-13T18:12:25.657Z,99527.97
2022-12-13T18:17:46.529Z,99520.66
2022-12-13T18:22:51.504Z,99517.09
2022-12-13T18:28:00.672Z,99521.44
2022-12-13T18:33:02.606Z,99521.97
2022-12-13T18:38:04.052Z,99515.94
2022-12-13T18:43:05.485Z,99522.28
2022-12-13T18:48:06.933Z,99522.00
2022-12-13T18:53:08.319Z,99514.59
2022-12-13T18:58:09.707Z,99517.25
2022-12-13T19:03:11.165Z,99512.03
2022-12-13T19:08:12.632Z,99503.84
2022-12-13T19:13:14.000Z,99497.38
2022-12-13T19:18:15.381Z,99497.38
2022-12-13T19:23:17.856Z,99498.19
2022-12-13T19:28:19.283Z,99509.13
2022-12-13T19:33:20.687Z,99519.22
2022-12-13T19:38:22.223Z,99511.03
2022-12-13T19:43:23.873Z,99509.13
2022-12-13T19:48:25.500Z,99491.06
2022-12-13T19:53:27.949Z,99501.16
2022-12-13T19:58:29.664Z,99488.84
2022-12-13T20:03:32.794Z,99495.47
2022-12-13T20:08:34.272Z,99490.78
2022-12-13T20:13:35.660Z,99485.59
2022-12-13T20:18:37.020Z,99486.69
2022-12-13T20:23:38.387Z,99485.56
2022-12-13T20:28:39.764Z,99483.56
2022-12-13T20:33:42.172Z,99487.97
2022-12-13T20:38:43.648Z,99483.34
2022-12-13T20:43:48.488Z,99476.25
2022-12-13T20:48:50.768Z,99487.47
2022-12-13T20:53:52.208Z,99479.81
2022-12-13T20:58:53.623Z,99478.75
2022-12-13T21:03:55.620Z,99472.72
2022-12-13T21:09:02.320Z,99464.53
2022-12-13T21:14:21.285Z,99465.91
2022-12-13T21:19:39.430Z,99450.91
2022-12-13T21:24:41.735Z,99456.63
2022-12-13T21:29:43.098Z,99463.44
2022-12-13T21:34:44.489Z,99451.16
2022-12-13T21:39:46.087Z,99443.47
2022-12-13T21:44:47.492Z,99432.31
2022-12-13T21:49:49.068Z,99416.97
2022-12-13T21:54:52.921Z,99415.91
2022-12-13T22:00:00.589Z,99404.66
2022-12-13T22:05:02.062Z,99404.94
2022-12-13T22:10:03.584Z,99396.66
2022-12-13T22:15:07.105Z,99403.28
2022-12-13T22:20:13.453Z,99399.41
2022-12-13T22:25:14.927Z,99399.63
2022-12-13T22:30:16.352Z,99402.59
2022-12-13T22:35:17.716Z,99399.88
2022-12-13T22:40:19.175Z,99392.22
2022-12-13T22:45:20.591Z,99385.69
2022-12-13T22:50:22.221Z,99385.75
2022-12-13T22:55:23.587Z,99380.03
2022-12-13T23:00:24.960Z,99371.84
2022-12-13T23:05:26.344Z,99368.22
2022-12-13T23:10:46.028Z,99365.66
2022-12-13T23:15:49.537Z,99356.63
2022-12-13T23:20:51.088Z,99349.00
2022-12-13T23:25:52.548Z,99341.13
2022-12-13T23:30:53.957Z,99337.00
2022-12-13T23:36:09.195Z,99340.88
2022-12-13T23:41:27.126Z,99327.25
2022-12-13T23:46:34.996Z,99320.69
2022-12-13T23:51:37.803Z,99314.44
2022-12-13T23:56:39.182Z,99311.19
